createdAt,value
2019-01-14T00:00:21.575Z,64.31
2019-01-14T00:01:02.171Z,63.93
2019-01-14T00:01:42.777Z,64.31
2019-01-14T00:02:23.417Z,64.5
2019-01-14T00:03:04.029Z,64.4
2019-01-14T00:03:44.631Z,64.5
2019-01-14T00:04:25.247Z,64.5
2019-01-14T00:05:05.839Z,64.5
2019-01-14T00:05:46.442Z,64.5
2019-01-14T00:06:27.055Z,64.4
2019-01-14T00:07:07.679Z,64.4
2019-01-14T00:07:48.285Z,64.4
2019-01-14T00:08:28.907Z,64.31
2019-01-14T00:09:09.511Z,64.5
2019-01-14T00:09:50.117Z,64.5
2019-01-14T00:10:30.733Z,64.5
2019-01-14T00:11:11.353Z,64.5
2019-01-14T00:11:51.999Z,64.4
2019-01-14T00:12:32.607Z,64.12
2019-01-14T00:13:13.227Z,64.12
2019-01-14T00:13:53.855Z,64.5
2019-01-14T00:14:34.457Z,64.31
2019-01-14T00:15:15.084Z,64.31
2019-01-14T00:15:55.683Z,64.5
2019-01-14T00:16:36.337Z,64.4
2019-01-14T00:17:17.000Z,64.31
2019-01-14T00:17:57.587Z,64.5
2019-01-14T00:18:38.235Z,64.5
2019-01-14T00:19:18.830Z,64.5
2019-01-14T00:19:59.443Z,64.5
2019-01-14T00:20:40.067Z,64.02
2019-01-14T00:21:20.682Z,64.02
2019-01-14T00:22:01.301Z,64.02
2019-01-14T00:22:41.919Z,64.5
2019-01-14T00:23:22.529Z,64.31
2019-01-14T00:24:03.151Z,64.02
2019-01-14T00:24:43.751Z,64.12
2019-01-14T00:25:24.373Z,64.12
2019-01-14T00:26:04.999Z,64.22
2019-01-14T00:26:45.613Z,64.22
2019-01-14T00:27:26.225Z,64.12
2019-01-14T00:28:06.830Z,64.31
2019-01-14T00:28:47.421Z,64.22
2019-01-14T00:29:28.035Z,64.31
2019-01-14T00:30:08.642Z,64.31
2019-01-14T00:30:49.261Z,64.12
2019-01-14T00:31:29.869Z,64.22
2019-01-14T00:32:10.461Z,64.22
2019-01-14T00:32:51.072Z,64.12
2019-01-14T00:33:31.677Z,64.22
2019-01-14T00:34:12.289Z,64.22
2019-01-14T00:34:52.912Z,64.22
2019-01-14T00:35:33.563Z,64.22
2019-01-14T00:36:17.525Z,64.22
2019-01-14T00:36:54.773Z,64.31
2019-01-14T00:37:35.413Z,64.31
2019-01-14T00:38:16.037Z,63.93
2019-01-14T00:38:56.615Z,64.22
2019-01-14T00:39:37.237Z,64.12
2019-01-14T00:40:17.854Z,64.31
2019-01-14T00:40:58.460Z,64.31
2019-01-14T00:41:39.107Z,63.93
2019-01-14T00:42:19.701Z,64.12
2019-01-14T00:43:00.309Z,64.12
2019-01-14T00:43:40.917Z,64.02
2019-01-14T00:44:21.535Z,64.22
2019-01-14T00:45:02.155Z,63.93
2019-01-14T00:45:42.767Z,64.5
2019-01-14T00:46:23.371Z,64.02
2019-01-14T00:47:03.995Z,64.59
2019-01-14T00:47:44.599Z,64.22
2019-01-14T00:48:25.191Z,64.22
2019-01-14T00:49:05.800Z,64.22
2019-01-14T00:49:46.427Z,64.12
2019-01-14T00:50:27.029Z,64.02
2019-01-14T00:51:07.645Z,64.22
2019-01-14T00:51:48.253Z,64.12
2019-01-14T00:52:28.925Z,64.22
2019-01-14T00:53:09.541Z,64.12
2019-01-14T00:53:50.146Z,64.22
2019-01-14T00:54:30.757Z,64.22
2019-01-14T00:55:11.357Z,64.02
2019-01-14T00:55:51.969Z,64.22
2019-01-14T00:56:32.572Z,64.22
2019-01-14T00:57:13.191Z,64.22
2019-01-14T00:57:53.795Z,64.22
2019-01-14T00:58:34.399Z,64.12
2019-01-14T00:59:15.007Z,64.22
2019-01-14T00:59:55.613Z,64.22
2019-01-14T01:00:36.225Z,64.22
2019-01-14T01:01:16.827Z,64.22
2019-01-14T01:01:57.457Z,64.02
2019-01-14T01:02:38.077Z,64.22
2019-01-14T01:03:18.682Z,63.93
2019-01-14T01:03:59.291Z,64.4
2019-01-14T01:04:39.936Z,64.12
2019-01-14T01:05:20.539Z,64.4
2019-01-14T01:06:01.131Z,64.22
2019-01-14T01:06:41.739Z,64.31
2019-01-14T01:07:22.351Z,64.22
2019-01-14T01:08:02.951Z,64.31
2019-01-14T01:08:43.556Z,64.22
2019-01-14T01:09:24.182Z,64.22
2019-01-14T01:10:04.804Z,64.12
2019-01-14T01:10:45.407Z,64.22
2019-01-14T01:11:26.045Z,64.22
2019-01-14T01:12:06.655Z,64.22
2019-01-14T01:12:47.258Z,64.22
2019-01-14T01:13:27.863Z,64.22
2019-01-14T01:14:08.475Z,64.22
2019-01-14T01:14:49.090Z,64.22
2019-01-14T01:15:29.711Z,64.12
2019-01-14T01:16:10.334Z,64.22
2019-01-14T01:16:50.955Z,64.12
2019-01-14T01:17:31.627Z,64.12
2019-01-14T01:18:12.242Z,64.4
2019-01-14T01:18:52.848Z,64.4
2019-01-14T01:19:33.457Z,64.22
2019-01-14T01:20:14.049Z,64.31
2019-01-14T01:20:54.670Z,64.22
2019-01-14T01:21:35.261Z,64.4
2019-01-14T01:22:15.868Z,64.31
2019-01-14T01:22:56.516Z,64.31
2019-01-14T01:23:37.160Z,64.12
2019-01-14T01:24:17.785Z,64.12
2019-01-14T01:24:58.401Z,64.22
2019-01-14T01:25:39.029Z,64.22
2019-01-14T01:26:19.673Z,64.22
2019-01-14T01:27:00.293Z,64.22
2019-01-14T01:27:40.893Z,64.22
2019-01-14T01:28:21.495Z,64.12
2019-01-14T01:29:02.097Z,64.22
2019-01-14T01:29:42.707Z,64.22
2019-01-14T01:30:23.303Z,64.4
2019-01-14T01:31:03.911Z,64.22
2019-01-14T01:31:44.529Z,64.12
2019-01-14T01:32:25.158Z,64.22
2019-01-14T01:33:05.766Z,64.22
2019-01-14T01:33:46.372Z,64.31
2019-01-14T01:34:26.978Z,64.12
2019-01-14T01:35:07.583Z,64.22
2019-01-14T01:35:48.195Z,64.31
2019-01-14T01:36:31.912Z,64.4
2019-01-14T01:37:09.433Z,64.12
2019-01-14T01:37:50.066Z,64.12
2019-01-14T01:38:30.687Z,64.12
2019-01-14T01:39:11.328Z,64.31
2019-01-14T01:39:51.958Z,64.22
2019-01-14T01:40:32.577Z,64.4
2019-01-14T01:41:13.185Z,64.31
2019-01-14T01:41:53.789Z,64.31
2019-01-14T01:42:34.406Z,64.22
2019-01-14T01:43:15.014Z,64.4
2019-01-14T01:43:55.635Z,64.4
2019-01-14T01:44:36.263Z,64.31
2019-01-14T01:45:16.878Z,64.22
2019-01-14T01:45:57.532Z,64.12
2019-01-14T01:46:38.151Z,64.12
2019-01-14T01:47:18.809Z,64.22
2019-01-14T01:47:59.407Z,64.12
2019-01-14T01:48:40.017Z,64.31
2019-01-14T01:49:20.621Z,64.22
2019-01-14T01:50:01.224Z,64.22
2019-01-14T01:50:41.866Z,64.12
2019-01-14T01:51:22.483Z,64.22
2019-01-14T01:52:03.133Z,64.22
2019-01-14T01:52:43.757Z,64.12
2019-01-14T01:53:24.368Z,64.22
2019-01-14T01:54:04.977Z,64.22
2019-01-14T01:54:45.588Z,64.22
2019-01-14T01:55:26.237Z,64.22
2019-01-14T01:56:06.859Z,64.22
2019-01-14T01:56:47.463Z,64.22
2019-01-14T01:57:28.084Z,64.31
2019-01-14T01:58:08.685Z,64.22
2019-01-14T01:58:49.316Z,64.12
2019-01-14T01:59:29.913Z,64.22
2019-01-14T02:00:10.509Z,64.22
2019-01-14T02:00:51.152Z,64.22
2019-01-14T02:01:31.760Z,64.12
2019-01-14T02:02:12.365Z,64.22
2019-01-14T02:02:52.967Z,64.22
2019-01-14T02:03:33.565Z,64.22
2019-01-14T02:04:14.161Z,64.12
2019-01-14T02:04:54.780Z,64.22
2019-01-14T02:05:35.363Z,64.22
2019-01-14T02:06:15.972Z,64.4
2019-01-14T02:06:56.569Z,64.22
2019-01-14T02:07:37.183Z,64.02
2019-01-14T02:08:17.786Z,64.12
2019-01-14T02:08:58.380Z,64.22
2019-01-14T02:09:38.987Z,64.22
2019-01-14T02:10:19.583Z,64.4
2019-01-14T02:11:00.178Z,64.12
2019-01-14T02:11:40.802Z,64.02
2019-01-14T02:12:21.400Z,64.22
2019-01-14T02:13:02.088Z,64.31
2019-01-14T02:13:42.698Z,64.12
2019-01-14T02:14:24.183Z,64.59
2019-01-14T02:15:04.783Z,64.22
2019-01-14T02:15:45.373Z,64.22
2019-01-14T02:16:25.983Z,64.4
2019-01-14T02:17:06.572Z,64.31
2019-01-14T02:17:47.187Z,64.22
2019-01-14T02:18:27.798Z,64.22
2019-01-14T02:19:08.398Z,64.22
2019-01-14T02:19:49.011Z,64.59
2019-01-14T02:20:29.639Z,64.22
2019-01-14T02:21:10.233Z,64.12
2019-01-14T02:21:50.837Z,64.22
2019-01-14T02:22:31.445Z,64.12
2019-01-14T02:23:12.069Z,64.12
2019-01-14T02:23:52.644Z,64.22
2019-01-14T02:24:33.254Z,64.12
2019-01-14T02:25:13.883Z,64.22
2019-01-14T02:25:54.511Z,64.22
2019-01-14T02:26:35.111Z,64.22
2019-01-14T02:27:15.723Z,64.22
2019-01-14T02:27:56.311Z,64.4
2019-01-14T02:28:36.919Z,64.22
2019-01-14T02:29:17.532Z,64.22
2019-01-14T02:29:58.169Z,64.22
2019-01-14T02:30:38.774Z,64.02
2019-01-14T02:31:19.365Z,64.02
2019-01-14T02:31:59.964Z,64.4
2019-01-14T02:32:40.572Z,64.12
2019-01-14T02:33:21.180Z,64.22
2019-01-14T02:34:01.783Z,64.22
2019-01-14T02:34:42.400Z,64.02
2019-01-14T02:35:23.001Z,64.22
2019-01-14T02:36:03.631Z,64.4
2019-01-14T02:36:48.310Z,64.12
2019-01-14T02:37:24.834Z,64.02
2019-01-14T02:38:05.448Z,64.12
2019-01-14T02:38:46.098Z,64.12
2019-01-14T02:39:26.726Z,64.12
2019-01-14T02:40:07.347Z,64.22
2019-01-14T02:40:47.955Z,64.22
2019-01-14T02:41:28.549Z,63.93
2019-01-14T02:42:09.158Z,63.93
2019-01-14T02:42:49.750Z,64.4
2019-01-14T02:43:30.374Z,63.93
2019-01-14T02:44:11.008Z,64.22
2019-01-14T02:44:51.622Z,64.31
2019-01-14T02:45:32.280Z,64.22
2019-01-14T02:46:12.888Z,64.12
2019-01-14T02:46:53.494Z,64.22
2019-01-14T02:47:34.101Z,64.22
2019-01-14T02:48:14.708Z,64.31
2019-01-14T02:48:55.336Z,64.31
2019-01-14T02:49:35.935Z,64.22
2019-01-14T02:50:16.552Z,64.22
2019-01-14T02:50:57.222Z,64.31
2019-01-14T02:51:37.830Z,64.12
2019-01-14T02:52:18.442Z,64.12
2019-01-14T02:52:59.077Z,64.22
2019-01-14T02:53:39.690Z,64.31
2019-01-14T02:54:20.309Z,64.12
2019-01-14T02:55:00.914Z,64.12
2019-01-14T02:55:41.512Z,64.22
2019-01-14T02:56:22.124Z,64.12
2019-01-14T02:57:02.754Z,64.31
2019-01-14T02:57:43.366Z,64.12
2019-01-14T02:58:23.988Z,64.02
2019-01-14T02:59:04.593Z,64.02
2019-01-14T02:59:45.188Z,64.02
2019-01-14T03:00:25.794Z,64.4
2019-01-14T03:01:06.433Z,64.31
2019-01-14T03:01:47.034Z,64.31
2019-01-14T03:02:27.637Z,64.5
2019-01-14T03:03:08.250Z,64.4
2019-01-14T03:03:48.860Z,64.31
2019-01-14T03:04:29.485Z,64.4
2019-01-14T03:05:10.078Z,64.59
2019-01-14T03:05:50.687Z,64.5
2019-01-14T03:06:31.298Z,64.59
2019-01-14T03:07:11.902Z,64.59
2019-01-14T03:07:52.491Z,64.31
2019-01-14T03:08:33.105Z,64.4
2019-01-14T03:09:13.709Z,64.4
2019-01-14T03:09:54.303Z,64.5
2019-01-14T03:10:34.900Z,64.5
2019-01-14T03:11:15.514Z,64.31
2019-01-14T03:11:56.106Z,64.4
2019-01-14T03:12:36.711Z,64.5
2019-01-14T03:13:17.344Z,64.5
2019-01-14T03:13:57.974Z,64.31
2019-01-14T03:14:38.615Z,64.59
2019-01-14T03:15:19.214Z,64.4
2019-01-14T03:15:59.813Z,64.31
2019-01-14T03:16:40.428Z,64.4
2019-01-14T03:17:21.024Z,64.5
2019-01-14T03:18:01.628Z,64.4
2019-01-14T03:18:42.239Z,64.5
2019-01-14T03:19:22.853Z,64.5
2019-01-14T03:20:03.457Z,64.31
2019-01-14T03:20:44.068Z,64.31
2019-01-14T03:21:24.694Z,64.31
2019-01-14T03:22:05.288Z,64.5
2019-01-14T03:22:45.888Z,64.4
2019-01-14T03:23:26.489Z,64.12
2019-01-14T03:24:07.100Z,64.02
2019-01-14T03:24:47.716Z,64.12
2019-01-14T03:25:28.318Z,64.02
2019-01-14T03:26:08.956Z,64.31
2019-01-14T03:26:49.573Z,64.12
2019-01-14T03:27:30.168Z,64.02
2019-01-14T03:28:10.777Z,64.12
2019-01-14T03:28:51.408Z,64.31
2019-01-14T03:29:32.013Z,64.22
2019-01-14T03:30:12.629Z,64.4
2019-01-14T03:30:53.302Z,64.02
2019-01-14T03:31:33.920Z,64.22
2019-01-14T03:32:14.520Z,64.22
2019-01-14T03:32:55.138Z,64.22
2019-01-14T03:33:35.744Z,64.31
2019-01-14T03:34:16.352Z,64.4
2019-01-14T03:34:56.970Z,64.31
2019-01-14T03:35:37.580Z,64.31
2019-01-14T03:36:18.183Z,64.02
2019-01-14T03:37:05.386Z,64.22
2019-01-14T03:37:39.384Z,63.93
2019-01-14T03:38:19.980Z,64.22
2019-01-14T03:39:00.592Z,64.12
2019-01-14T03:39:41.209Z,64.12
2019-01-14T03:40:21.804Z,64.12
2019-01-14T03:41:02.474Z,64.22
2019-01-14T03:41:43.074Z,64.02
2019-01-14T03:42:23.680Z,64.4
2019-01-14T03:43:04.292Z,64.4
2019-01-14T03:43:44.900Z,64.4
2019-01-14T03:44:25.532Z,64.31
2019-01-14T03:45:06.156Z,64.4
2019-01-14T03:45:46.758Z,64.4
2019-01-14T03:46:27.361Z,64.31
2019-01-14T03:47:07.978Z,64.02
2019-01-14T03:47:48.588Z,64.59
2019-01-14T03:48:29.232Z,64.4
2019-01-14T03:49:09.848Z,64.4
2019-01-14T03:49:50.466Z,64.31
2019-01-14T03:50:31.084Z,64.4
2019-01-14T03:51:11.692Z,64.5
2019-01-14T03:51:52.296Z,64.5
2019-01-14T03:52:32.905Z,64.4
2019-01-14T03:53:13.510Z,64.5
2019-01-14T03:53:54.117Z,64.5
2019-01-14T03:54:34.728Z,64.31
2019-01-14T03:55:15.350Z,64.59
2019-01-14T03:55:55.958Z,64.5
2019-01-14T03:56:36.560Z,64.31
2019-01-14T03:57:17.158Z,64.5
2019-01-14T03:57:57.762Z,64.5
2019-01-14T03:58:38.361Z,64.12
2019-01-14T03:59:18.974Z,64.31
2019-01-14T03:59:59.570Z,63.93
2019-01-14T04:00:40.196Z,64.12
2019-01-14T04:01:20.798Z,64.02
2019-01-14T04:02:01.402Z,64.12
2019-01-14T04:02:42.000Z,64.02
2019-01-14T04:03:22.616Z,64.02
2019-01-14T04:04:03.209Z,64.12
2019-01-14T04:04:43.806Z,64.02
2019-01-14T04:05:24.443Z,64.12
2019-01-14T04:06:05.068Z,64.02
2019-01-14T04:06:45.677Z,64.02
2019-01-14T04:07:26.288Z,64.02
2019-01-14T04:08:06.883Z,64.12
2019-01-14T04:08:47.475Z,64.02
2019-01-14T04:09:28.100Z,64.02
2019-01-14T04:10:08.718Z,64.02
2019-01-14T04:10:49.318Z,63.83
2019-01-14T04:11:29.947Z,64.02
2019-01-14T04:12:10.548Z,64.02
2019-01-14T04:12:51.160Z,64.02
2019-01-14T04:13:31.787Z,63.83
2019-01-14T04:14:12.400Z,64.02
2019-01-14T04:14:53.004Z,63.93
2019-01-14T04:15:33.634Z,63.83
2019-01-14T04:16:14.245Z,64.02
2019-01-14T04:16:54.956Z,64.02
2019-01-14T04:17:35.492Z,63.83
2019-01-14T04:18:16.118Z,64.02
2019-01-14T04:18:56.723Z,64.12
2019-01-14T04:19:37.358Z,64.12
2019-01-14T04:20:17.959Z,64.31
2019-01-14T04:20:58.582Z,64.4
2019-01-14T04:21:39.192Z,64.22
2019-01-14T04:22:19.846Z,64.22
2019-01-14T04:23:01.380Z,64.31
2019-01-14T04:23:41.122Z,64.5
2019-01-14T04:24:21.770Z,63.93
2019-01-14T04:25:02.378Z,64.22
2019-01-14T04:25:43.004Z,63.93
2019-01-14T04:26:23.604Z,64.15
2019-01-14T04:27:04.248Z,63.93
2019-01-14T04:27:44.868Z,64.12
2019-01-14T04:28:25.494Z,64.12
2019-01-14T04:29:06.124Z,64.12
2019-01-14T04:29:46.761Z,64.12
2019-01-14T04:30:27.400Z,64.72
2019-01-14T04:31:08.008Z,64.34
2019-01-14T04:31:48.646Z,64.59
2019-01-14T04:32:29.248Z,64.4
2019-01-14T04:33:09.864Z,64.72
2019-01-14T04:33:50.483Z,64.63
2019-01-14T04:34:31.093Z,64.72
2019-01-14T04:35:11.725Z,64.4
2019-01-14T04:35:52.316Z,64.4
2019-01-14T04:36:32.928Z,64.43
2019-01-14T04:37:21.287Z,64.4
2019-01-14T04:37:54.148Z,64.5
2019-01-14T04:38:34.760Z,64.4
2019-01-14T04:39:15.370Z,64.5
2019-01-14T04:39:55.989Z,64.31
2019-01-14T04:40:36.634Z,64.34
2019-01-14T04:41:17.230Z,64.72
2019-01-14T04:41:57.858Z,64.63
2019-01-14T04:42:38.462Z,64.69
2019-01-14T04:43:19.086Z,64.59
2019-01-14T04:43:59.698Z,64.69
2019-01-14T04:44:40.314Z,64.72
2019-01-14T04:45:20.967Z,64.53
2019-01-14T04:46:01.590Z,64.43
2019-01-14T04:46:42.226Z,64.63
2019-01-14T04:47:22.830Z,64.43
2019-01-14T04:48:03.440Z,64.53
2019-01-14T04:48:44.065Z,64.43
2019-01-14T04:49:24.660Z,64.53
2019-01-14T04:50:05.277Z,64.4
2019-01-14T04:50:45.902Z,64.34
2019-01-14T04:51:26.534Z,64.34
2019-01-14T04:52:07.142Z,64.43
2019-01-14T04:52:47.756Z,64.43
2019-01-14T04:53:28.374Z,64.25
2019-01-14T04:54:08.985Z,64.25
2019-01-14T04:54:49.596Z,64.25
2019-01-14T04:55:30.212Z,64.43
2019-01-14T04:56:10.822Z,64.25
2019-01-14T04:56:51.420Z,64.34
2019-01-14T04:57:32.062Z,64.34
2019-01-14T04:58:12.692Z,64.34
2019-01-14T04:58:53.306Z,64.25
2019-01-14T04:59:33.960Z,63.96
2019-01-14T05:00:14.559Z,64.25
2019-01-14T05:00:55.166Z,63.96
2019-01-14T05:01:35.798Z,64.25
2019-01-14T05:02:16.413Z,64.25
2019-01-14T05:02:57.036Z,64.25
2019-01-14T05:03:37.650Z,64.34
2019-01-14T05:04:18.271Z,63.96
2019-01-14T05:04:58.878Z,63.96
2019-01-14T05:05:39.509Z,64.25
2019-01-14T05:06:20.144Z,64.25
2019-01-14T05:07:00.740Z,64.34
2019-01-14T05:07:41.340Z,64.25
2019-01-14T05:08:21.980Z,64.15
2019-01-14T05:09:02.591Z,64.25
2019-01-14T05:09:43.246Z,64.53
2019-01-14T05:10:23.878Z,64.34
2019-01-14T05:11:04.490Z,64.25
2019-01-14T05:11:45.098Z,63.96
2019-01-14T05:12:25.748Z,64.34
2019-01-14T05:13:06.361Z,64.15
2019-01-14T05:13:46.954Z,64.25
2019-01-14T05:14:27.566Z,63.96
2019-01-14T05:15:08.201Z,64.34
2019-01-14T05:15:48.836Z,64.53
2019-01-14T05:16:29.452Z,63.96
2019-01-14T05:17:10.058Z,64.34
2019-01-14T05:17:50.674Z,64.05
2019-01-14T05:18:31.281Z,64.15
2019-01-14T05:19:11.897Z,64.15
2019-01-14T05:19:52.511Z,63.96
2019-01-14T05:20:33.125Z,64.05
2019-01-14T05:21:13.729Z,64.25
2019-01-14T05:21:54.338Z,64.25
2019-01-14T05:22:34.958Z,64.25
2019-01-14T05:23:15.591Z,63.86
2019-01-14T05:23:56.215Z,64.25
2019-01-14T05:24:36.838Z,64.25
2019-01-14T05:25:17.458Z,64.25
2019-01-14T05:25:58.062Z,64.25
2019-01-14T05:26:38.702Z,64.43
2019-01-14T05:27:19.308Z,64.25
2019-01-14T05:27:59.916Z,64.15
2019-01-14T05:28:40.536Z,64.25
2019-01-14T05:29:21.198Z,64.15
2019-01-14T05:30:01.817Z,64.15
2019-01-14T05:30:42.427Z,64.25
2019-01-14T05:31:23.044Z,63.96
2019-01-14T05:32:03.672Z,64.25
2019-01-14T05:32:44.280Z,64.15
2019-01-14T05:33:24.884Z,64.34
2019-01-14T05:34:05.484Z,64.34
2019-01-14T05:34:46.078Z,63.96
2019-01-14T05:35:26.697Z,64.34
2019-01-14T05:36:07.310Z,64.15
2019-01-14T05:36:47.921Z,64.53
2019-01-14T05:37:28.557Z,63.96
2019-01-14T05:38:09.170Z,64.25
2019-01-14T05:38:49.790Z,64.25
2019-01-14T05:39:30.408Z,64.15
2019-01-14T05:40:11.036Z,64.25
2019-01-14T05:40:51.639Z,64.15
2019-01-14T05:41:32.260Z,63.96
2019-01-14T05:42:12.885Z,63.96
2019-01-14T05:42:53.519Z,64.05
2019-01-14T05:43:34.120Z,64.15
2019-01-14T05:44:14.726Z,64.34
2019-01-14T05:44:55.350Z,64.25
2019-01-14T05:45:35.954Z,64.34
2019-01-14T05:46:16.554Z,64.15
2019-01-14T05:46:57.150Z,64.34
2019-01-14T05:47:37.759Z,64.53
2019-01-14T05:48:18.380Z,64.43
2019-01-14T05:48:58.992Z,64.53
2019-01-14T05:49:39.604Z,64.05
2019-01-14T05:50:20.194Z,64.4
2019-01-14T05:51:00.796Z,64.02
2019-01-14T05:51:41.401Z,64.05
2019-01-14T05:52:21.996Z,64.25
2019-01-14T05:53:02.600Z,64.25
2019-01-14T05:53:43.262Z,64.25
2019-01-14T05:54:23.914Z,64.34
2019-01-14T05:55:04.520Z,64.25
2019-01-14T05:55:45.124Z,64.63
2019-01-14T05:56:25.730Z,64.5
2019-01-14T05:57:06.330Z,65.68
2019-01-14T05:57:46.935Z,65.17
2019-01-14T05:58:27.731Z,64.98
2019-01-14T05:59:08.334Z,64.88
2019-01-14T05:59:48.960Z,64.82
2019-01-14T06:00:29.555Z,65.11
2019-01-14T06:01:10.166Z,65.2
2019-01-14T06:01:50.780Z,65.2
2019-01-14T06:02:31.396Z,65.49
2019-01-14T06:03:11.988Z,65.3
2019-01-14T06:03:52.594Z,65.3
2019-01-14T06:04:33.196Z,65.2
2019-01-14T06:05:13.800Z,65.2
2019-01-14T06:05:54.418Z,65.3
2019-01-14T06:06:35.036Z,65.2
2019-01-14T06:07:15.630Z,65.2
2019-01-14T06:07:56.252Z,65.2
2019-01-14T06:08:36.856Z,65.3
2019-01-14T06:09:17.490Z,65.11
2019-01-14T06:09:58.089Z,65.39
2019-01-14T06:10:38.717Z,65.01
2019-01-14T06:11:19.336Z,65.3
2019-01-14T06:11:59.957Z,65.11
2019-01-14T06:12:40.572Z,65.11
2019-01-14T06:13:21.188Z,65.01
2019-01-14T06:14:01.797Z,65.3
2019-01-14T06:14:42.394Z,65.68
2019-01-14T06:15:23.034Z,65.39
2019-01-14T06:16:03.598Z,65.2
2019-01-14T06:16:44.245Z,65.39
2019-01-14T06:17:24.846Z,65.39
2019-01-14T06:18:05.436Z,65.3
2019-01-14T06:18:46.085Z,65.01
2019-01-14T06:19:26.686Z,65.11
2019-01-14T06:20:07.281Z,65.2
2019-01-14T06:20:47.883Z,65.11
2019-01-14T06:21:28.491Z,65.01
2019-01-14T06:22:09.116Z,64.92
2019-01-14T06:22:49.750Z,64.92
2019-01-14T06:23:30.352Z,65.11
2019-01-14T06:24:10.966Z,64.92
2019-01-14T06:24:51.577Z,65.01
2019-01-14T06:25:32.207Z,64.92
2019-01-14T06:26:12.812Z,64.92
2019-01-14T06:26:53.428Z,65.11
2019-01-14T06:27:34.046Z,65.3
2019-01-14T06:28:14.678Z,64.92
2019-01-14T06:28:55.292Z,65.39
2019-01-14T06:29:35.916Z,65.88
2019-01-14T06:30:16.526Z,65.39
2019-01-14T06:30:57.134Z,65.3
2019-01-14T06:31:37.734Z,65.3
2019-01-14T06:32:18.351Z,64.92
2019-01-14T06:32:59.028Z,65.39
2019-01-14T06:33:39.642Z,65.26
2019-01-14T06:34:20.268Z,64.88
2019-01-14T06:35:00.871Z,64.92
2019-01-14T06:35:41.480Z,65.11
2019-01-14T06:36:22.084Z,64.82
2019-01-14T06:37:02.697Z,65.2
2019-01-14T06:37:43.309Z,65.3
2019-01-14T06:38:23.919Z,65.11
2019-01-14T06:39:04.524Z,65.11
2019-01-14T06:39:45.132Z,64.92
2019-01-14T06:40:25.738Z,64.92
2019-01-14T06:41:06.340Z,65.11
2019-01-14T06:41:47.073Z,64.82
2019-01-14T06:42:27.699Z,64.79
2019-01-14T06:43:08.307Z,64.79
2019-01-14T06:43:48.920Z,64.88
2019-01-14T06:44:29.536Z,64.82
2019-01-14T06:45:10.121Z,65.11
2019-01-14T06:45:50.724Z,65.08
2019-01-14T06:46:31.342Z,64.98
2019-01-14T06:47:11.942Z,65.26
2019-01-14T06:47:52.544Z,65.97
2019-01-14T06:48:33.151Z,65.2
2019-01-14T06:49:13.781Z,64.98
2019-01-14T06:49:54.396Z,64.79
2019-01-14T06:50:35.002Z,64.82
2019-01-14T06:51:15.604Z,64.88
2019-01-14T06:51:56.239Z,64.92
2019-01-14T06:52:36.859Z,65.08
2019-01-14T06:53:17.476Z,64.82
2019-01-14T06:53:58.128Z,64.79
2019-01-14T06:54:38.731Z,64.88
2019-01-14T06:55:19.332Z,65.3
2019-01-14T06:55:59.945Z,64.82
2019-01-14T06:56:40.558Z,64.92
2019-01-14T06:57:21.171Z,64.92
2019-01-14T06:58:01.791Z,64.82
2019-01-14T06:58:42.395Z,65.01
2019-01-14T06:59:23.016Z,65.11
2019-01-14T07:00:03.628Z,64.92
2019-01-14T07:00:44.234Z,65.11
2019-01-14T07:01:24.869Z,65.3
2019-01-14T07:02:05.502Z,65.11
2019-01-14T07:02:46.111Z,65.2
2019-01-14T07:03:26.745Z,65.3
2019-01-14T07:04:07.354Z,64.92
2019-01-14T07:04:48.000Z,65.3
2019-01-14T07:05:28.621Z,64.92
2019-01-14T07:06:09.249Z,65.3
2019-01-14T07:06:49.856Z,64.92
2019-01-14T07:07:30.508Z,65.2
2019-01-14T07:08:11.123Z,65.2
2019-01-14T07:08:51.745Z,65.2
2019-01-14T07:09:32.376Z,64.82
2019-01-14T07:10:12.991Z,65.11
2019-01-14T07:10:53.603Z,65.11
2019-01-14T07:11:34.224Z,65.01
2019-01-14T07:12:14.822Z,65.11
2019-01-14T07:12:55.472Z,65.11
2019-01-14T07:13:36.072Z,65.39
2019-01-14T07:14:16.678Z,65.3
2019-01-14T07:14:57.286Z,65.11
2019-01-14T07:15:37.889Z,65.2
2019-01-14T07:16:18.488Z,65.49
2019-01-14T07:16:59.097Z,65.01
2019-01-14T07:17:39.704Z,65.3
2019-01-14T07:18:20.312Z,64.92
2019-01-14T07:19:00.933Z,65.39
2019-01-14T07:19:41.543Z,65.3
2019-01-14T07:20:22.151Z,65.3
2019-01-14T07:21:02.761Z,64.92
2019-01-14T07:21:43.362Z,64.63
2019-01-14T07:22:23.983Z,65.2
2019-01-14T07:23:04.606Z,65.2
2019-01-14T07:23:45.212Z,65.3
2019-01-14T07:24:25.831Z,65.01
2019-01-14T07:25:06.427Z,65.01
2019-01-14T07:25:47.032Z,64.92
2019-01-14T07:26:27.637Z,65.3
2019-01-14T07:27:08.242Z,65.01
2019-01-14T07:27:48.932Z,65.11
2019-01-14T07:28:29.540Z,65.2
2019-01-14T07:29:10.152Z,64.82
2019-01-14T07:29:50.812Z,64.82
2019-01-14T07:30:31.421Z,65.11
2019-01-14T07:31:12.019Z,65.01
2019-01-14T07:31:52.635Z,65.01
2019-01-14T07:32:33.236Z,65.3
2019-01-14T07:33:13.851Z,65.3
2019-01-14T07:33:54.479Z,64.92
2019-01-14T07:34:35.099Z,65.11
2019-01-14T07:35:15.722Z,65.01
2019-01-14T07:35:56.330Z,65.3
2019-01-14T07:36:36.952Z,65.2
2019-01-14T07:37:17.560Z,65.11
2019-01-14T07:37:58.176Z,65.2
2019-01-14T07:38:38.795Z,65.11
2019-01-14T07:39:19.408Z,65.11
2019-01-14T07:40:00.017Z,65.3
2019-01-14T07:40:40.623Z,65.49
2019-01-14T07:41:21.226Z,65.3
2019-01-14T07:42:01.829Z,65.11
2019-01-14T07:42:42.434Z,64.72
2019-01-14T07:43:23.053Z,64.72
2019-01-14T07:44:03.684Z,65.39
2019-01-14T07:44:44.290Z,65.39
2019-01-14T07:45:24.909Z,65.68
2019-01-14T07:46:05.505Z,65.3
2019-01-14T07:46:46.111Z,65.11
2019-01-14T07:47:26.720Z,65.26
2019-01-14T07:48:07.346Z,65.01
2019-01-14T07:48:47.953Z,65.11
2019-01-14T07:49:28.553Z,65.3
2019-01-14T07:50:09.156Z,65.49
2019-01-14T07:50:49.756Z,64.72
2019-01-14T07:51:30.366Z,64.92
2019-01-14T07:52:10.964Z,64.82
2019-01-14T07:52:51.583Z,64.98
2019-01-14T07:53:32.189Z,65.49
2019-01-14T07:54:12.800Z,64.92
2019-01-14T07:54:53.420Z,64.69
2019-01-14T07:55:34.088Z,65.17
2019-01-14T07:56:14.707Z,65.36
2019-01-14T07:56:55.316Z,65.2
2019-01-14T07:57:35.968Z,65.2
2019-01-14T07:58:16.579Z,64.53
2019-01-14T07:58:57.201Z,64.53
2019-01-14T07:59:37.890Z,65.17
2019-01-14T08:00:18.475Z,64.43
2019-01-14T08:00:59.079Z,64.53
2019-01-14T08:01:39.691Z,65.39
2019-01-14T08:02:20.317Z,65.17
2019-01-14T08:03:00.947Z,65.45
2019-01-14T08:03:41.553Z,65.55
2019-01-14T08:04:22.167Z,65.84
2019-01-14T08:05:02.775Z,65.65
2019-01-14T08:05:43.399Z,65.58
2019-01-14T08:06:24.001Z,66.35
2019-01-14T08:07:04.752Z,65.78
2019-01-14T08:07:45.320Z,65.68
2019-01-14T08:08:25.963Z,65.78
2019-01-14T08:09:06.733Z,66.16
2019-01-14T08:09:47.333Z,66.25
2019-01-14T08:10:27.927Z,66.64
2019-01-14T08:11:08.556Z,66.25
2019-01-14T08:11:49.184Z,65.88
2019-01-14T08:12:29.835Z,66.06
2019-01-14T08:13:10.456Z,65.97
2019-01-14T08:13:51.088Z,66.06
2019-01-14T08:14:31.684Z,66.25
2019-01-14T08:15:12.295Z,65.97
2019-01-14T08:15:52.901Z,66.35
2019-01-14T08:16:33.511Z,66.06
2019-01-14T08:17:14.130Z,66.16
2019-01-14T08:17:54.736Z,66.35
2019-01-14T08:18:35.345Z,66.25
2019-01-14T08:19:15.947Z,66.64
2019-01-14T08:19:56.566Z,66.45
2019-01-14T08:20:37.193Z,66.25
2019-01-14T08:21:17.807Z,66.06
2019-01-14T08:21:58.417Z,65.88
2019-01-14T08:22:39.028Z,65.88
2019-01-14T08:23:19.663Z,66.06
2019-01-14T08:24:00.257Z,66.16
2019-01-14T08:24:40.848Z,66.16
2019-01-14T08:25:21.476Z,65.68
2019-01-14T08:26:02.084Z,65.68
2019-01-14T08:26:42.699Z,66.51
2019-01-14T08:27:23.347Z,66.25
2019-01-14T08:28:03.946Z,65.84
2019-01-14T08:28:44.556Z,65.88
2019-01-14T08:29:25.174Z,65.97
2019-01-14T08:30:05.789Z,66.22
2019-01-14T08:30:46.399Z,65.68
2019-01-14T08:31:27.087Z,66.16
2019-01-14T08:32:07.670Z,66.25
2019-01-14T08:32:48.290Z,65.88
2019-01-14T08:33:28.901Z,65.78
2019-01-14T08:34:09.537Z,66.45
2019-01-14T08:34:50.168Z,66.64
2019-01-14T08:35:30.827Z,66.06
2019-01-14T08:36:11.416Z,65.94
2019-01-14T08:36:52.009Z,66.32
2019-01-14T08:37:32.615Z,66.06
2019-01-14T08:38:13.253Z,66.35
2019-01-14T08:38:53.901Z,66.45
2019-01-14T08:39:34.507Z,65.97
2019-01-14T08:40:15.113Z,66.06
2019-01-14T08:40:55.719Z,66.25
2019-01-14T08:41:36.323Z,66.35
2019-01-14T08:42:16.965Z,65.97
2019-01-14T08:42:57.583Z,65.88
2019-01-14T08:43:38.203Z,65.97
2019-01-14T08:44:18.809Z,66.35
2019-01-14T08:44:59.409Z,66.06
2019-01-14T08:45:40.032Z,65.97
2019-01-14T08:46:20.679Z,66.06